Time;durP1;ratioP1;P1;durP2;ratioP2;P2;SDS_P1;SDS_P2;PMS_P1;PMS_P2;Temp;Humidity;BMP_temperature;BMP_pressure;BME280_temperature;BME280_humidity;BME280_pressure;Samples;Min_cycle;Max_cycle;Signal;HPM_P1;HPM_P2
2023/07/19 00:01:28;;;;;;;2.53;1.33;;;;;;;24.83;100.00;100394.03;5003019;28;20045;-79
2023/07/19 00:03:53;;;;;;;2.88;1.75;;;;;;;24.82;100.00;100370.00;5002690;28;20050;-79
2023/07/19 00:06:19;;;;;;;1.33;0.93;;;;;;;24.63;100.00;100352.31;4998724;28;20492;-79
2023/07/19 00:08:44;;;;;;;3.38;1.52;;;;;;;24.75;100.00;100382.94;5006285;28;20046;-79
2023/07/19 00:11:10;;;;;;;4.70;1.77;;;;;;;24.17;100.00;100289.75;5002674;28;20487;-79
2023/07/19 00:13:35;;;;;;;3.50;1.63;;;;;;;24.14;100.00;100296.16;5003175;28;20129;-79
2023/07/19 00:16:00;;;;;;;2.88;2.28;;;;;;;24.11;100.00;100287.41;5001569;28;20123;-78
2023/07/19 00:18:26;;;;;;;3.95;1.58;;;;;;;22.92;100.00;100103.97;5006992;28;20080;-77
2023/07/19 00:20:51;;;;;;;2.40;1.33;;;;;;;24.08;100.00;100301.88;4997547;28;20046;-77
2023/07/19 00:23:17;;;;;;;5.80;2.78;;;;;;;24.44;100.00;100379.34;5006745;28;20537;-78
2023/07/19 00:25:43;;;;;;;9.55;1.60;;;;;;;23.86;100.00;100301.38;5006613;28;20069;-78
2023/07/19 00:28:08;;;;;;;1.83;1.25;;;;;;;24.32;100.00;100388.06;5006824;28;20505;-77
2023/07/19 00:30:33;;;;;;;3.22;1.38;;;;;;;23.86;100.00;100318.34;5006866;28;20053;-78
2023/07/19 00:32:59;;;;;;;2.00;1.23;;;;;;;23.34;100.00;100219.44;5006146;28;20054;-78
2023/07/19 00:35:25;;;;;;;1.92;1.20;;;;;;;23.79;100.00;100301.75;4988800;28;20042;-78
2023/07/19 00:37:51;;;;;;;4.07;2.05;;;;;;;23.96;100.00;100340.13;4988243;28;20060;-78
2023/07/19 00:40:18;;;;;;;2.22;1.10;;;;;;;24.08;100.00;100355.50;5006632;28;20046;-78
2023/07/19 00:42:43;;;;;;;3.08;1.40;;;;;;;22.83;100.00;100152.63;5006100;28;20049;-78
2023/07/19 00:45:09;;;;;;;4.03;1.40;;;;;;;23.73;100.00;100314.56;5002515;28;20026;-78
2023/07/19 00:47:36;;;;;;;3.90;1.85;;;;;;;23.65;100.00;100296.25;4984567;28;20031;-78
2023/07/19 00:50:03;;;;;;;3.47;1.95;;;;;;;24.26;100.00;100392.94;5004042;28;20046;-78
2023/07/19 00:52:28;;;;;;;6.13;2.08;;;;;;;24.15;100.00;100377.47;4991142;28;20042;-78
2023/07/19 00:54:54;;;;;;;3.17;1.58;;;;;;;24.02;100.00;100358.50;4989537;28;20157;-78
2023/07/19 00:57:20;;;;;;;1.98;1.02;;;;;;;23.99;100.00;100362.22;5006491;28;20358;-79
2023/07/19 00:59:45;;;;;;;6.22;2.70;;;;;;;24.00;100.00;100393.47;5003807;28;20056;-79
2023/07/19 01:02:12;;;;;;;3.08;1.33;;;;;;;23.27;100.00;100256.41;5009459;28;20041;-78
2023/07/19 01:04:38;;;;;;;2.35;1.45;;;;;;;23.92;100.00;100381.44;5007567;28;20057;-77
2023/07/19 01:29:09;;;;;;;3.08;1.38;;;;;;;23.63;100.00;100383.03;5049966;27;21247;-72
2023/07/19 01:31:34;;;;;;;2.90;1.23;;;;;;;23.49;100.00;100373.06;5049690;28;20071;-72
2023/07/19 01:34:00;;;;;;;3.25;1.80;;;;;;;22.81;100.00;100258.88;5028895;28;20488;-73
2023/07/19 01:36:26;;;;;;;3.05;1.92;;;;;;;23.32;100.00;100349.84;5028296;28;20042;-73
2023/07/19 01:38:51;;;;;;;2.17;1.85;;;;;;;23.50;100.00;100393.53;5032767;28;20041;-73
2023/07/19 01:41:17;;;;;;;2.38;1.58;;;;;;;23.40;100.00;100369.06;5029663;28;20044;-74
2023/07/19 01:43:42;;;;;;;1.92;1.13;;;;;;;22.94;100.00;100300.09;5027786;28;20062;-73
2023/07/19 01:46:08;;;;;;;3.50;2.25;;;;;;;22.80;100.00;100288.38;5027076;28;20081;-72
2023/07/19 01:48:34;;;;;;;3.63;1.48;;;;;;;23.09;100.00;100317.16;5028469;28;20050;-73
2023/07/19 01:50:59;;;;;;;5.38;1.88;;;;;;;22.94;100.00;100300.09;5020469;28;20029;-72
2023/07/19 01:53:25;;;;;;;3.17;1.67;;;;;;;23.46;100.00;100408.91;5033110;28;20033;-72
2023/07/19 01:55:50;;;;;;;1.80;1.20;;;;;;;22.82;100.00;100303.41;5032288;28;20046;-73
2023/07/19 01:58:16;;;;;;;2.53;1.23;;;;;;;22.72;100.00;100288.78;5031052;28;20137;-73
2023/07/19 02:00:41;;;;;;;4.18;1.60;;;;;;;23.43;100.00;100408.22;5038080;28;20404;-72
2023/07/19 02:03:07;;;;;;;1.92;1.10;;;;;;;22.91;100.00;100321.66;5038500;28;20052;-72
2023/07/19 02:05:32;;;;;;;4.35;2.53;;;;;;;23.19;100.00;100376.44;5038963;28;20021;-73
2023/07/19 02:07:57;;;;;;;5.18;3.55;;;;;;;23.17;100.00;100373.81;5034308;28;20087;-73
2023/07/19 02:10:23;;;;;;;3.60;2.13;;;;;;;23.37;100.00;100398.69;5033471;28;20049;-72
2023/07/19 02:12:49;;;;;;;10.13;2.10;;;;;;;23.19;100.00;100371.06;5030480;28;20390;-73
2023/07/19 02:15:15;;;;;;;3.38;2.13;;;;;;;23.11;100.00;100362.59;5031009;28;20081;-73
2023/07/19 02:17:41;;;;;;;6.03;1.70;;;;;;;22.79;100.00;100313.41;5020875;28;20029;-73
2023/07/19 02:20:07;;;;;;;3.42;1.05;;;;;;;23.05;100.00;100365.59;5026287;28;20046;-74
2023/07/19 02:22:32;;;;;;;2.95;1.77;;;;;;;23.20;100.00;100379.97;5038996;28;20041;-74
2023/07/19 02:24:57;;;;;;;4.90;2.20;;;;;;;22.71;100.00;100301.31;5027721;28;20038;-74
2023/07/19 02:27:23;;;;;;;3.92;2.13;;;;;;;22.79;100.00;100318.75;5034996;28;20049;-74
2023/07/19 02:29:48;;;;;;;2.50;1.52;;;;;;;23.24;100.00;100414.53;5024270;28;20476;-73
2023/07/19 02:32:14;;;;;;;2.58;1.40;;;;;;;23.26;100.00;100427.84;5022798;28;20052;-74
2023/07/19 02:34:39;;;;;;;2.72;1.90;;;;;;;22.69;100.00;100355.84;5015585;28;20038;-72
2023/07/19 02:37:05;;;;;;;6.82;1.83;;;;;;;23.25;100.00;100421.63;5013994;28;20144;-73
2023/07/19 02:39:30;;;;;;;3.08;1.35;;;;;;;23.24;100.00;100411.84;5019924;28;20197;-73
2023/07/19 02:41:57;;;;;;;3.40;1.98;;;;;;;23.05;100.00;100430.69;5015881;28;20029;-73
2023/07/19 02:44:23;;;;;;;2.25;1.58;;;;;;;23.11;100.00;100429.53;5021107;28;20476;-73
2023/07/19 02:46:50;;;;;;;4.30;2.13;;;;;;;23.08;100.00;100414.47;5022008;28;20114;-73
2023/07/19 02:49:19;;;;;;;5.35;1.95;;;;;;;22.47;100.00;100305.22;5015566;28;20045;-73
2023/07/19 02:51:45;;;;;;;4.28;2.10;;;;;;;22.63;100.00;100316.00;5016917;28;20493;-73
2023/07/19 02:54:10;;;;;;;3.58;2.25;;;;;;;22.52;100.00;100290.69;5025472;28;20057;-72
2023/07/19 02:56:35;;;;;;;6.25;2.28;;;;;;;23.18;100.00;100405.03;5022501;28;20113;-73
2023/07/19 02:59:02;;;;;;;4.80;2.08;;;;;;;22.71;100.00;100327.16;5020082;28;20049;-72
2023/07/19 03:01:27;;;;;;;10.27;3.80;;;;;;;23.14;100.00;100378.50;5019016;28;20085;-73
2023/07/19 03:03:55;;;;;;;15.98;1.67;;;;;;;22.43;100.00;100280.47;5019428;28;20069;-72
2023/07/19 03:06:20;;;;;;;3.35;2.05;;;;;;;22.53;100.00;100299.59;5009929;28;20046;-73
2023/07/19 03:08:46;;;;;;;3.58;2.03;;;;;;;22.93;100.00;100391.16;5012975;28;20033;-73
2023/07/19 03:11:12;;;;;;;5.60;2.53;;;;;;;22.32;100.00;100297.06;5019545;28;20052;-73
2023/07/19 03:13:37;;;;;;;3.00;1.42;;;;;;;22.80;100.00;100377.53;5023625;28;20057;-73
2023/07/19 03:16:04;;;;;;;3.65;2.00;;;;;;;22.29;100.00;100283.00;5025571;28;20033;-74
2023/07/19 03:18:29;;;;;;;4.22;1.90;;;;;;;22.89;100.00;100371.69;5010592;28;20052;-73
2023/07/19 03:21:00;;;;;;;6.00;1.83;;;;;;;23.00;100.00;100399.78;5018463;28;20041;-72
2023/07/19 03:23:26;;;;;;;4.10;2.33;;;;;;;23.10;100.00;100411.72;5012900;28;20033;-74
2023/07/19 03:25:53;;;;;;;2.13;1.42;;;;;;;23.04;100.00;100404.00;5011693;28;20133;-73
2023/07/19 03:28:18;;;;;;;4.63;1.95;;;;;;;22.77;100.00;100358.97;5008678;28;20095;-73
2023/07/19 03:30:44;;;;;;;2.83;1.63;;;;;;;22.62;100.00;100323.19;5012296;28;20042;-74
2023/07/19 03:33:10;;;;;;;5.43;2.70;;;;;;;22.20;100.00;100305.66;5014980;28;20485;-72
2023/07/19 03:35:35;;;;;;;5.78;2.80;;;;;;;22.52;100.00;100317.44;5003126;28;20560;-74
2023/07/19 03:38:00;;;;;;;3.95;2.40;;;;;;;23.15;100.00;100407.84;5020531;28;20076;-74
2023/07/19 03:40:26;;;;;;;3.25;1.65;;;;;;;23.11;100.00;100392.06;5007617;28;20489;-74
2023/07/19 03:42:52;;;;;;;3.67;1.95;;;;;;;23.37;100.00;100406.72;5012538;28;20401;-72
2023/07/19 03:45:17;;;;;;;3.50;1.80;;;;;;;23.13;100.00;100366.03;5019743;28;20037;-72
2023/07/19 03:47:42;;;;;;;4.90;2.67;;;;;;;23.20;100.00;100388.00;5018102;28;20114;-74
2023/07/19 03:50:08;;;;;;;3.60;2.35;;;;;;;22.77;100.00;100292.09;5018289;28;20052;-74
2023/07/19 03:52:34;;;;;;;3.25;2.28;;;;;;;23.36;100.00;100388.91;5013734;28;20126;-74
2023/07/19 03:54:59;;;;;;;4.55;2.55;;;;;;;23.20;100.00;100353.19;5012876;28;20249;-73
2023/07/19 03:57:25;;;;;;;3.30;2.25;;;;;;;22.97;100.00;100305.28;5031070;28;20698;-73
2023/07/19 03:59:51;;;;;;;4.93;2.67;;;;;;;23.14;100.00;100324.97;5014993;28;20485;-73
2023/07/19 04:02:17;;;;;;;5.18;2.42;;;;;;;23.62;100.00;100394.69;5010665;28;20365;-73
2023/07/19 04:04:42;;;;;;;2.78;1.67;;;;;;;23.11;100.00;100303.72;5015155;28;20053;-73
2023/07/19 04:07:08;;;;;;;5.05;2.58;;;;;;;23.69;100.00;100386.22;5021472;28;20038;-73
2023/07/19 04:09:33;;;;;;;2.85;1.77;;;;;;;23.76;100.00;100394.81;5019484;28;20038;-73
2023/07/19 04:11:59;;;;;;;3.20;1.40;;;;;;;23.74;100.00;100404.75;5019149;28;20207;-73
2023/07/19 04:14:24;;;;;;;4.45;2.88;;;;;;;22.34;100.00;100145.44;5020553;28;20025;-72
2023/07/19 04:16:53;;;;;;;4.47;2.90;;;;;;;23.89;100.00;100393.19;5009337;28;20445;-72
2023/07/19 04:19:18;;;;;;;3.38;2.35;;;;;;;23.21;100.00;100283.53;5017703;28;20088;-72
2023/07/19 04:21:43;;;;;;;3.17;2.15;;;;;;;23.41;100.00;100301.16;5007623;28;20038;-73
2023/07/19 04:24:09;;;;;;;5.25;2.15;;;;;;;24.06;100.00;100407.47;5020349;28;20542;-72
2023/07/19 04:26:34;;;;;;;3.00;2.08;;;;;;;23.53;100.00;100313.88;5001446;28;20067;-72
2023/07/19 04:29:00;;;;;;;3.22;1.95;;;;;;;23.59;100.00;100326.06;5003451;28;20069;-73
2023/07/19 04:31:25;;;;;;;4.65;1.98;;;;;;;23.88;100.00;100370.03;5010197;28;20115;-73
2023/07/19 04:33:51;;;;;;;3.72;2.38;;;;;;;23.80;100.00;100357.03;5049150;28;20061;-73
2023/07/19 04:36:16;;;;;;;5.07;2.20;;;;;;;23.91;100.00;100339.50;5010804;28;20136;-73
2023/07/19 04:38:43;;;;;;;5.28;2.40;;;;;;;24.31;100.00;100394.41;5016176;28;20084;-73
2023/07/19 04:41:12;;;;;;;2.65;1.58;;;;;;;24.36;100.00;100389.63;4999472;28;20061;-72
2023/07/19 04:43:37;;;;;;;2.58;1.52;;;;;;;24.32;100.00;100387.22;5006797;28;20401;-72
2023/07/19 04:46:02;;;;;;;4.25;2.28;;;;;;;23.85;100.00;100296.97;5020021;28;20037;-72
2023/07/19 04:48:28;;;;;;;4.53;2.90;;;;;;;24.15;100.00;100361.38;5014226;28;20030;-74
2023/07/19 04:50:54;;;;;;;5.88;2.00;;;;;;;24.13;100.00;100323.06;5011249;28;20025;-73
2023/07/19 04:53:21;;;;;;;6.30;1.98;;;;;;;24.54;100.00;100394.94;5011614;28;20485;-72
2023/07/19 04:55:50;;;;;;;6.10;2.10;;;;;;;24.52;100.00;100411.09;5015535;28;20045;-72
2023/07/19 04:58:16;;;;;;;8.77;2.03;;;;;;;24.40;100.00;100375.09;5017227;28;20328;-72
2023/07/19 05:00:41;;;;;;;3.60;1.92;;;;;;;24.89;100.00;100414.31;5012428;28;20049;-72
2023/07/19 05:03:07;;;;;;;5.45;2.38;;;;;;;24.67;100.00;100393.22;5015821;28;20038;-73
2023/07/19 05:05:33;;;;;;;4.80;2.08;;;;;;;24.57;100.00;100339.25;5016162;28;20029;-73
2023/07/19 05:07:59;;;;;;;4.68;2.13;;;;;;;25.03;100.00;100398.22;5009974;28;20061;-72
2023/07/19 05:10:26;;;;;;;4.32;2.40;;;;;;;24.43;100.00;100310.53;5012873;28;20083;-75
2023/07/19 05:12:52;;;;;;;3.72;1.90;;;;;;;24.94;100.00;100395.25;5002437;28;20156;-73
2023/07/19 05:15:17;;;;;;;3.08;1.85;;;;;;;25.53;100.00;100412.22;5014311;28;20076;-75
2023/07/19 05:17:43;;;;;;;3.97;2.20;;;;;;;25.89;100.00;100411.78;5011233;28;20477;-74
2023/07/19 05:20:09;;;;;;;9.05;3.17;;;;;;;25.32;100.00;100335.66;4997826;28;20104;-73
2023/07/19 05:22:35;;;;;;;5.13;3.03;;;;;;;25.45;100.00;100333.91;5000836;28;20048;-73
2023/07/19 05:25:03;;;;;;;5.90;2.70;;;;;;;26.27;100.00;100345.66;5005401;28;20111;-73
2023/07/19 05:27:28;;;;;;;5.30;2.78;;;;;;;26.72;100.00;100425.19;5004757;28;20447;-73
2023/07/19 05:29:54;;;;;;;3.97;1.70;;;;;;;26.26;100.00;100333.19;5014202;28;20041;-73
2023/07/19 05:32:19;;;;;;;4.13;2.53;;;;;;;26.83;95.29;100321.25;5015164;28;20057;-73
2023/07/19 05:34:45;;;;;;;4.72;1.48;;;;;;;27.50;94.29;100394.69;5015767;28;20041;-73
2023/07/19 05:37:10;;;;;;;6.05;2.80;;;;;;;28.03;88.59;100402.63;5014088;28;20557;-74
2023/07/19 05:39:36;;;;;;;5.28;2.75;;;;;;;26.76;88.59;100301.97;5019935;28;20041;-73
2023/07/19 05:42:02;;;;;;;3.53;2.22;;;;;;;27.86;87.75;100389.47;5010100;28;20042;-74
2023/07/19 05:44:27;;;;;;;3.10;2.17;;;;;;;27.70;83.54;100323.16;5008446;28;20026;-74
2023/07/19 05:46:53;;;;;;;2.78;2.03;;;;;;;28.31;84.46;100409.53;5004878;28;20058;-72
2023/07/19 05:49:19;;;;;;;4.03;2.10;;;;;;;28.68;82.64;100400.53;5016542;28;20042;-72
2023/07/19 05:51:45;;;;;;;8.45;2.63;;;;;;;28.65;79.11;100406.16;5013215;28;20580;-72
2023/07/19 05:54:10;;;;;;;8.27;2.33;;;;;;;29.01;73.76;100300.69;5011515;28;20042;-73
2023/07/19 05:56:36;;;;;;;3.25;1.48;;;;;;;29.87;69.07;100395.72;5008619;28;20033;-72
2023/07/19 05:59:03;;;;;;;3.78;2.28;;;;;;;29.10;70.14;100357.69;5010350;28;20058;-71
2023/07/19 06:01:29;;;;;;;2.90;1.70;;;;;;;30.11;68.13;100398.28;5020799;28;20124;-73
2023/07/19 06:03:54;;;;;;;3.83;2.28;;;;;;;30.17;68.99;100403.16;5047316;28;20064;-73
2023/07/19 06:06:20;;;;;;;2.25;1.45;;;;;;;30.26;65.26;100398.88;5022477;28;20410;-73
2023/07/19 06:08:46;;;;;;;2.33;1.50;;;;;;;30.17;63.70;100395.06;5015923;28;20037;-72
2023/07/19 06:11:11;;;;;;;3.17;1.90;;;;;;;29.90;67.11;100313.44;5012777;28;20096;-72
2023/07/19 06:13:37;;;;;;;4.43;2.22;;;;;;;29.77;65.33;100330.69;5021300;28;20065;-72
2023/07/19 06:16:02;;;;;;;3.00;1.77;;;;;;;30.04;67.63;100345.63;5022754;28;20046;-72
2023/07/19 06:18:29;;;;;;;5.40;2.55;;;;;;;29.39;68.65;100390.53;5009590;28;20045;-72
2023/07/19 06:20:54;;;;;;;3.15;2.33;;;;;;;29.81;71.15;100393.53;5009771;28;20037;-72
2023/07/19 06:23:20;;;;;;;3.65;2.95;;;;;;;28.76;66.79;100284.69;5014465;28;20563;-73
2023/07/19 06:25:46;;;;;;;3.47;2.17;;;;;;;29.48;74.09;100387.13;5008647;28;20128;-73
2023/07/19 06:28:12;;;;;;;2.78;1.65;;;;;;;29.85;66.61;100390.44;5012849;28;20121;-72
2023/07/19 06:30:37;;;;;;;2.60;2.00;;;;;;;29.83;66.86;100305.00;5021547;28;20489;-74
2023/07/19 06:33:03;;;;;;;3.13;1.70;;;;;;;29.38;75.59;100311.25;5020534;28;20410;-73
2023/07/19 06:35:28;;;;;;;2.92;2.00;;;;;;;30.03;68.91;100385.34;5019227;28;20025;-74
2023/07/19 06:37:54;;;;;;;2.53;2.08;;;;;;;29.70;68.19;100336.72;5016738;28;20072;-72
2023/07/19 06:40:19;;;;;;;3.38;2.25;;;;;;;29.65;71.39;100377.63;5028268;28;20041;-72
2023/07/19 06:42:45;;;;;;;6.72;2.33;;;;;;;28.95;74.96;100284.94;5022686;28;20041;-73
2023/07/19 06:45:11;;;;;;;5.30;3.10;;;;;;;30.01;68.72;100346.72;5021546;28;20044;-73
2023/07/19 06:47:36;;;;;;;4.07;2.17;;;;;;;29.67;67.88;100300.81;5012391;28;20033;-73
2023/07/19 06:50:02;;;;;;;11.45;3.22;;;;;;;30.37;68.18;100362.78;5012808;28;20046;-72
2023/07/19 06:52:28;;;;;;;2.63;1.98;;;;;;;29.92;67.29;100319.59;5040853;28;20041;-73
2023/07/19 06:54:53;;;;;;;2.03;1.15;;;;;;;29.93;65.59;100289.69;5008505;28;20053;-73
2023/07/19 06:57:21;;;;;;;3.25;2.15;;;;;;;29.92;66.25;100314.16;5011733;28;20572;-73
2023/07/19 06:59:51;;;;;;;2.53;1.80;;;;;;;29.42;64.00;100230.78;5011503;28;20041;-73
2023/07/19 07:02:18;;;;;;;4.25;2.38;;;;;;;30.57;68.40;100375.50;4992107;28;20488;-73
2023/07/19 07:04:45;;;;;;;1.88;1.45;;;;;;;30.34;65.40;100319.72;4993005;28;20138;-73
2023/07/19 07:07:11;;;;;;;4.03;2.53;;;;;;;30.25;68.45;100386.28;4999794;28;20472;-72
2023/07/19 07:09:37;;;;;;;17.17;3.50;;;;;;;30.23;66.05;100340.41;5000517;28;20068;-73
2023/07/19 07:12:04;;;;;;;3.33;2.38;;;;;;;30.19;63.47;100332.69;4994497;28;20037;-73
2023/07/19 07:14:29;;;;;;;2.58;1.80;;;;;;;30.45;67.70;100379.25;5006547;28;20029;-73
2023/07/19 07:16:54;;;;;;;2.65;1.88;;;;;;;29.96;65.16;100311.09;4988845;28;20057;-72
2023/07/19 07:19:20;;;;;;;3.72;2.08;;;;;;;29.46;64.57;100292.59;5008047;28;20034;-73
2023/07/19 07:21:45;;;;;;;5.10;2.72;;;;;;;30.22;62.94;100376.56;5003639;28;20379;-73
2023/07/19 07:24:11;;;;;;;8.27;3.80;;;;;;;30.41;66.16;100375.06;4987876;28;20046;-73
2023/07/19 07:26:36;;;;;;;3.30;1.50;;;;;;;29.53;62.09;100225.34;4988047;28;20030;-73
2023/07/19 07:29:03;;;;;;;4.50;2.50;;;;;;;29.96;64.77;100364.34;5012717;28;20034;-74
2023/07/19 07:31:31;;;;;;;2.88;2.03;;;;;;;29.04;66.10;100277.94;5003223;28;20077;-74
2023/07/19 07:33:58;;;;;;;1.92;1.00;;;;;;;29.37;67.34;100289.78;5019480;28;20057;-73
2023/07/19 07:36:24;;;;;;;4.97;2.75;;;;;;;29.83;69.43;100364.50;5007311;28;20045;-73
2023/07/19 07:38:50;;;;;;;5.78;2.83;;;;;;;29.77;65.51;100273.88;5023248;28;20377;-73
2023/07/19 07:41:16;;;;;;;2.60;1.83;;;;;;;30.23;62.62;100370.19;4998970;28;20308;-73
2023/07/19 07:43:42;;;;;;;3.20;1.85;;;;;;;29.96;61.28;100270.50;5018118;28;20045;-73
2023/07/19 07:46:07;;;;;;;6.35;2.47;;;;;;;30.34;64.30;100295.34;5021867;28;20468;-72
2023/07/19 07:48:33;;;;;;;3.85;2.33;;;;;;;30.81;64.96;100355.44;5005489;28;20128;-71
2023/07/19 07:50:58;;;;;;;5.38;3.58;;;;;;;31.05;63.76;100369.63;5000357;28;20042;-72
2023/07/19 07:53:24;;;;;;;2.72;1.55;;;;;;;29.87;60.64;100252.31;5036597;28;20021;-74
2023/07/19 07:55:49;;;;;;;4.13;2.17;;;;;;;30.13;60.46;100369.22;5002855;28;20053;-72
2023/07/19 07:58:16;;;;;;;2.95;1.70;;;;;;;30.44;62.77;100366.72;5007150;28;20053;-72
2023/07/19 08:00:42;;;;;;;8.10;2.65;;;;;;;30.49;65.42;100331.97;5006886;28;20592;-73
2023/07/19 08:03:09;;;;;;;3.92;1.73;;;;;;;30.22;61.91;100276.41;5002800;28;20094;-73
2023/07/19 08:05:34;;;;;;;4.40;1.58;;;;;;;31.04;60.47;100304.69;5006514;28;20378;-72
2023/07/19 08:08:00;;;;;;;4.05;2.70;;;;;;;30.90;59.12;100247.13;5007037;28;20052;-72
2023/07/19 08:10:25;;;;;;;2.88;1.70;;;;;;;31.03;56.22;100254.19;5006413;28;20049;-73
2023/07/19 08:12:51;;;;;;;3.20;1.90;;;;;;;30.79;58.84;100295.97;5006411;28;20057;-74
2023/07/19 08:15:16;;;;;;;3.85;1.80;;;;;;;31.40;56.80;100343.09;5000940;28;20060;-73
2023/07/19 08:17:42;;;;;;;5.25;2.92;;;;;;;31.47;55.67;100246.69;4999863;28;20048;-72
2023/07/19 08:20:09;;;;;;;7.55;3.53;;;;;;;32.02;54.14;100330.34;5006544;28;20461;-74
2023/07/19 08:22:36;;;;;;;3.67;2.30;;;;;;;32.20;54.42;100336.81;5002835;28;20092;-73
2023/07/19 08:25:01;;;;;;;2.70;1.63;;;;;;;32.30;53.74;100320.50;5003190;28;20045;-73
2023/07/19 08:27:27;;;;;;;3.88;2.47;;;;;;;31.40;52.77;100229.19;5005402;28;20482;-74
2023/07/19 08:29:53;;;;;;;4.40;2.30;;;;;;;32.32;54.62;100315.81;5003391;28;20026;-73
2023/07/19 08:32:19;;;;;;;4.13;2.85;;;;;;;32.27;51.47;100321.66;5004507;28;20072;-74
2023/07/19 08:34:45;;;;;;;7.15;1.75;;;;;;;32.10;51.17;100263.50;5009366;28;20050;-75
2023/07/19 08:37:10;;;;;;;5.70;2.45;;;;;;;32.43;50.76;100261.34;5005671;28;20054;-73
2023/07/19 08:39:36;;;;;;;3.88;2.17;;;;;;;31.80;51.08;100255.44;5005977;28;20053;-73
2023/07/19 08:42:06;;;;;;;3.35;1.88;;;;;;;32.10;50.19;100230.03;5002543;28;20183;-77
2023/07/19 08:44:32;;;;;;;3.50;2.35;;;;;;;31.77;50.48;100256.56;4997876;28;20026;-73
2023/07/19 08:46:57;;;;;;;6.20;4.15;;;;;;;32.71;49.27;100262.31;5002323;28;20039;-75
2023/07/19 08:49:24;;;;;;;3.83;2.65;;;;;;;32.94;49.57;100251.06;5005642;28;20050;-74
2023/07/19 08:51:49;;;;;;;2.80;2.00;;;;;;;32.97;48.77;100238.03;5002818;28;20037;-74
2023/07/19 08:54:15;;;;;;;3.38;1.90;;;;;;;33.42;48.14;100240.00;5005297;28;20453;-74
2023/07/19 08:56:41;;;;;;;2.95;1.58;;;;;;;33.43;46.13;100290.69;5005207;28;20059;-74
2023/07/19 08:59:07;;;;;;;4.28;2.50;;;;;;;34.03;45.16;100273.00;5000044;28;20093;-74
2023/07/19 09:01:34;;;;;;;3.65;1.67;;;;;;;34.06;44.91;100286.28;5004311;28;20057;-74
2023/07/19 09:03:59;;;;;;;4.10;2.10;;;;;;;33.89;45.34;100232.69;4995958;28;20100;-75
2023/07/19 09:06:28;;;;;;;3.42;2.13;;;;;;;34.28;45.36;100225.09;5002659;28;20563;-75
2023/07/19 09:08:55;;;;;;;3.33;2.08;;;;;;;32.32;44.00;100262.34;5001138;28;20030;-75
2023/07/19 09:11:23;;;;;;;3.65;2.17;;;;;;;33.82;44.70;100248.78;5006417;28;20083;-74
2023/07/19 09:13:57;;;;;;;3.70;2.53;;;;;;;33.80;45.91;100248.94;5002698;28;20082;-74
2023/07/19 09:16:31;;;;;;;2.38;1.75;;;;;;;34.42;45.60;100193.69;5002846;28;20037;-75
2023/07/19 09:18:58;;;;;;;4.13;2.78;;;;;;;34.25;44.15;100168.16;5002930;28;20057;-74
2023/07/19 09:21:34;;;;;;;3.13;1.85;;;;;;;34.46;44.24;100175.97;5003935;28;20053;-76
2023/07/19 09:24:03;;;;;;;4.15;2.60;;;;;;;33.45;44.21;100244.28;5004398;28;20440;-74
2023/07/19 09:26:48;;;;;;;3.65;2.10;;;;;;;33.17;45.61;100266.03;5000884;28;20037;-76
2023/07/19 09:29:14;;;;;;;4.75;3.05;;;;;;;33.78;44.81;100166.56;4985241;28;20092;-74
2023/07/19 09:31:53;;;;;;;3.25;1.67;;;;;;;33.78;43.08;100152.97;4983975;28;20545;-76
2023/07/19 09:34:37;;;;;;;2.85;2.03;;;;;;;34.74;41.99;100235.81;4993529;28;20047;-77
2023/07/19 09:37:04;;;;;;;4.15;3.00;;;;;;;34.56;42.57;100250.31;4990560;28;20050;-75
2023/07/19 09:39:31;;;;;;;8.27;2.50;;;;;;;34.05;42.58;100172.94;4992916;28;20060;-76
2023/07/19 09:41:57;;;;;;;3.05;1.85;;;;;;;34.65;43.39;100169.47;5007796;28;20057;-74
2023/07/19 09:44:23;;;;;;;10.25;2.15;;;;;;;34.77;42.18;100220.00;4980876;28;20049;-74
2023/07/19 09:46:49;;;;;;;6.88;2.95;;;;;;;34.89;41.91;100221.41;5004111;28;20061;-75
2023/07/19 09:49:15;;;;;;;5.07;2.35;;;;;;;35.08;41.36;100233.09;4995660;28;20137;-75
2023/07/19 09:51:42;;;;;;;6.57;3.08;;;;;;;35.54;40.40;100219.13;4991320;28;20565;-74
2023/07/19 09:54:10;;;;;;;3.72;2.35;;;;;;;36.17;39.70;100207.63;4998938;28;20141;-75
2023/07/19 09:56:38;;;;;;;6.68;2.20;;;;;;;36.54;39.75;100206.22;4988540;28;20046;-74
2023/07/19 09:59:06;;;;;;;5.22;1.77;;;;;;;36.35;39.16;100205.56;5007165;28;20046;-74
2023/07/19 10:01:33;;;;;;;3.13;2.10;;;;;;;35.72;38.26;100138.81;4994024;28;20039;-73
2023/07/19 10:03:59;;;;;;;2.92;2.28;;;;;;;36.02;38.85;100212.06;4997769;28;20057;-73
2023/07/19 10:06:31;;;;;;;3.92;2.10;;;;;;;35.63;38.53;100221.72;5008564;28;20038;-75
2023/07/19 10:09:15;;;;;;;;;;;;;;;36.78;38.69;100215.44;5008372;28;20025;-74
2023/07/19 10:11:42;;;;;;;3.25;2.15;;;;;;;36.93;37.60;100200.00;5004308;28;19917;-75
2023/07/19 10:14:07;;;;;;;3.28;2.78;;;;;;;36.92;36.44;100177.25;5007755;28;20132;-75
2023/07/19 10:16:36;;;;;;;3.90;2.35;;;;;;;35.45;39.02;100199.13;5008267;28;20501;-75
2023/07/19 10:19:12;;;;;;;3.92;2.17;;;;;;;36.93;37.75;100203.59;5004360;28;20053;-75
2023/07/19 10:21:43;;;;;;;12.25;3.45;;;;;;;37.49;36.47;100214.47;5005056;28;20054;-75
2023/07/19 10:24:08;;;;;;;7.45;4.40;;;;;;;37.45;35.19;100204.91;5004331;28;20106;-76
2023/07/19 10:26:37;;;;;;;6.25;3.50;;;;;;;37.66;35.54;100192.50;5005479;28;20026;-76
2023/07/19 10:29:04;;;;;;;4.60;3.20;;;;;;;37.29;35.91;100202.28;5000589;28;20068;-75
2023/07/19 10:31:31;;;;;;;4.85;2.53;;;;;;;37.40;36.03;100152.59;5005705;28;20049;-76
2023/07/19 10:33:57;;;;;;;11.90;4.93;;;;;;;37.57;35.50;100181.59;5039134;28;20588;-75
2023/07/19 10:36:23;;;;;;;6.05;4.07;;;;;;;37.47;35.21;100087.03;5007376;28;20054;-77
2023/07/19 10:38:49;;;;;;;4.60;4.15;;;;;;;37.08;35.87;100127.13;5006600;28;20037;-75
2023/07/19 10:41:17;;;;;;;5.10;3.90;;;;;;;37.36;34.76;100101.97;5008317;28;20717;-75
2023/07/19 10:43:42;;;;;;;6.68;4.55;;;;;;;36.88;35.29;100093.88;5008100;28;20050;-75
2023/07/19 10:46:08;;;;;;;5.32;3.47;;;;;;;37.74;35.95;100170.50;5007557;28;20095;-75
2023/07/19 10:48:38;;;;;;;7.00;4.57;;;;;;;38.20;34.78;100171.34;5001969;28;20038;-75
2023/07/19 10:51:05;;;;;;;8.35;3.63;;;;;;;36.84;34.89;100086.19;5003420;28;20072;-72
2023/07/19 10:53:43;;;;;;;11.13;9.07;;;;;;;37.23;35.63;100075.22;5008538;28;20080;-73
2023/07/19 10:56:08;;;;;;;70.00;46.33;;;;;;;37.43;35.85;100163.16;5005262;28;20119;-76
2023/07/19 10:58:34;;;;;;;243.23;140.00;;;;;;;37.46;35.97;100085.31;5007038;28;20057;-75
2023/07/19 11:01:01;;;;;;;81.65;47.47;;;;;;;38.09;35.85;100118.88;5008077;28;20708;-75
2023/07/19 11:03:27;;;;;;;274.83;170.95;;;;;;;38.06;35.74;100076.25;5006806;28;20069;-74
2023/07/19 11:05:53;;;;;;;8.30;7.35;;;;;;;37.62;35.66;100131.75;5006641;28;20379;-76
2023/07/19 11:08:22;;;;;;;8.43;5.75;;;;;;;37.37;35.65;100071.69;5022830;28;20034;-75
2023/07/19 11:10:49;;;;;;;3.97;2.83;;;;;;;35.85;37.09;100069.19;5006605;28;20058;-80
2023/07/19 11:13:16;;;;;;;3.88;2.97;;;;;;;36.85;36.08;100143.44;4996603;28;20045;-82
2023/07/19 11:15:55;;;;;;;5.70;2.85;;;;;;;36.80;35.61;100077.47;5002804;28;20077;-82
2023/07/19 11:18:38;;;;;;;5.68;3.35;;;;;;;37.69;36.06;100097.13;5000985;28;20056;-74
2023/07/19 11:21:06;;;;;;;5.22;3.42;;;;;;;37.79;36.11;100121.50;5006754;28;20038;-75
2023/07/19 11:23:44;;;;;;;3.10;2.28;;;;;;;37.02;35.52;100116.00;5002707;28;20499;-74
2023/07/19 11:26:12;;;;;;;5.90;2.08;;;;;;;37.72;35.39;100118.69;5005389;28;20478;-75
2023/07/19 11:28:45;;;;;;;3.42;1.88;;;;;;;37.27;35.44;100101.16;5006264;28;20054;-74
2023/07/19 11:31:33;;;;;;;3.60;1.67;;;;;;;37.00;36.11;100022.34;5006906;28;20038;-74
2023/07/19 11:34:07;;;;;;;6.72;3.05;;;;;;;36.73;36.29;100028.13;5004527;28;20089;-74
2023/07/19 11:36:40;;;;;;;2.75;1.85;;;;;;;37.29;36.20;100098.25;5006935;28;20065;-76
2023/07/19 11:39:16;;;;;;;7.43;2.58;;;;;;;36.97;35.88;100020.78;5006624;28;20041;-73
2023/07/19 11:41:42;;;;;;;3.70;1.65;;;;;;;36.47;36.90;100009.25;5003942;28;20071;-74